createdAt,value
2018-12-16T00:00:13.527Z,-1.90
2018-12-16T00:02:41.872Z,-1.80
2018-12-16T00:05:11.604Z,-2.00
2018-12-16T00:07:40.128Z,-2.00
2018-12-16T00:10:08.532Z,-2.10
2018-12-16T00:12:36.980Z,-2.10
2018-12-16T00:15:05.358Z,-2.10
2018-12-16T00:17:33.945Z,-2.10
2018-12-16T00:20:02.392Z,-2.10
2018-12-16T00:22:31.276Z,-1.90
2018-12-16T00:24:59.696Z,-1.80
2018-12-16T00:27:28.054Z,-1.70
2018-12-16T00:29:56.408Z,-1.50
2018-12-16T00:32:24.788Z,-1.80
2018-12-16T00:34:53.429Z,-1.60
2018-12-16T00:37:21.748Z,-1.60
2018-12-16T00:39:50.109Z,-1.60
2018-12-16T00:42:18.440Z,-1.60
2018-12-16T00:44:47.127Z,-1.70
2018-12-16T00:47:15.546Z,-1.80
2018-12-16T00:49:44.165Z,-1.90
2018-12-16T00:52:12.486Z,-1.80
2018-12-16T00:54:40.872Z,-1.70
2018-12-16T00:57:09.217Z,-1.60
2018-12-16T00:59:37.559Z,-1.60
2018-12-16T01:02:08.568Z,-1.60
2018-12-16T01:04:36.971Z,-1.50
2018-12-16T01:07:05.443Z,-1.50
2018-12-16T01:09:33.825Z,-1.40
2018-12-16T01:12:02.320Z,-1.50
2018-12-16T01:14:30.671Z,-1.50
2018-12-16T01:16:59.017Z,-1.60
2018-12-16T01:19:27.448Z,-1.50
2018-12-16T01:21:55.795Z,-1.50
2018-12-16T01:24:24.131Z,-1.40
2018-12-16T01:26:52.927Z,-1.40
2018-12-16T01:29:21.360Z,-1.40
2018-12-16T01:31:49.823Z,-1.50
2018-12-16T01:34:18.195Z,-1.50
2018-12-16T01:36:46.579Z,-1.60
2018-12-16T01:39:14.926Z,-1.70
2018-12-16T01:41:43.316Z,-1.60
2018-12-16T01:44:12.063Z,-1.50
2018-12-16T01:46:40.432Z,-1.30
2018-12-16T01:49:08.807Z,-1.40
2018-12-16T01:51:38.147Z,-1.50
2018-12-16T01:54:06.469Z,-1.30
2018-12-16T01:56:34.825Z,-1.30
2018-12-16T01:59:03.181Z,-1.20
2018-12-16T02:01:31.789Z,-1.40
2018-12-16T02:04:00.168Z,-1.20
2018-12-16T02:06:28.702Z,-1.40
2018-12-16T02:08:57.045Z,-1.30
2018-12-16T02:11:25.400Z,-1.40
2018-12-16T02:13:57.255Z,-1.30
2018-12-16T02:16:25.640Z,-1.30
2018-12-16T02:18:54.020Z,-1.40
2018-12-16T02:21:22.347Z,-1.50
2018-12-16T02:23:50.824Z,-1.40
2018-12-16T02:26:19.299Z,-1.50
2018-12-16T02:28:47.723Z,-1.30
2018-12-16T02:31:16.065Z,-1.20
2018-12-16T02:33:44.437Z,-1.30
2018-12-16T02:36:16.371Z,-1.50
2018-12-16T02:38:44.751Z,-1.60
2018-12-16T02:41:13.151Z,-1.60
2018-12-16T02:43:41.813Z,-1.50
2018-12-16T02:46:10.232Z,-1.50
2018-12-16T02:48:38.649Z,-1.50
2018-12-16T02:51:06.989Z,-1.30
2018-12-16T02:53:35.324Z,-1.10
2018-12-16T02:56:03.821Z,-1.10
2018-12-16T02:58:32.175Z,-1.10
2018-12-16T03:01:00.694Z,-1.10
2018-12-16T03:03:29.044Z,-1.10
2018-12-16T03:05:57.475Z,-1.10
2018-12-16T03:08:25.844Z,-1.00
2018-12-16T03:10:54.195Z,-1.10
2018-12-16T03:13:22.617Z,-1.00
2018-12-16T03:15:51.015Z,-1.00
2018-12-16T03:18:19.432Z,-1.00
2018-12-16T03:20:47.801Z,-1.10
2018-12-16T03:23:16.140Z,-1.10
2018-12-16T03:25:44.594Z,-1.20
2018-12-16T03:28:12.923Z,-1.10
2018-12-16T03:30:41.314Z,-1.00
2018-12-16T03:33:09.728Z,-1.10
2018-12-16T03:35:38.180Z,-1.10
2018-12-16T03:38:06.508Z,-1.20
2018-12-16T03:40:34.924Z,-1.20
2018-12-16T03:43:03.272Z,-1.10
2018-12-16T03:45:31.934Z,-1.00
2018-12-16T03:48:00.353Z,-1.00
2018-12-16T03:50:28.675Z,-1.10
2018-12-16T03:52:56.995Z,-1.10
2018-12-16T03:55:25.504Z,-1.10
2018-12-16T03:57:53.831Z,-1.10
2018-12-16T04:00:22.332Z,-1.10
2018-12-16T04:02:50.783Z,-1.10
2018-12-16T04:05:19.099Z,-1.20
2018-12-16T04:07:47.554Z,-1.30
2018-12-16T04:10:15.883Z,-1.30
2018-12-16T04:12:44.271Z,-1.00
2018-12-16T04:15:12.621Z,-1.00
2018-12-16T04:17:41.006Z,-1.00
2018-12-16T04:20:09.331Z,-1.20
2018-12-16T04:22:37.696Z,-1.30
2018-12-16T04:25:06.205Z,-1.30
2018-12-16T04:27:34.626Z,-1.30
2018-12-16T04:30:03.214Z,-1.40
2018-12-16T04:32:31.675Z,-1.50
2018-12-16T04:35:00.068Z,-1.50
2018-12-16T04:37:28.400Z,-1.80
2018-12-16T04:39:56.740Z,-2.00
2018-12-16T04:42:25.082Z,-1.70
2018-12-16T04:44:53.438Z,-1.80
2018-12-16T04:47:21.784Z,-1.70
2018-12-16T04:49:50.239Z,-1.80
2018-12-16T04:52:18.551Z,-1.90
2018-12-16T04:54:46.953Z,-1.70
2018-12-16T04:57:15.284Z,-2.00
2018-12-16T04:59:43.640Z,-2.00
2018-12-16T05:02:11.983Z,-1.90
2018-12-16T05:04:40.358Z,-2.00
2018-12-16T05:07:08.680Z,-1.80
2018-12-16T05:09:37.080Z,-1.70
2018-12-16T05:12:05.411Z,-1.70
2018-12-16T05:14:33.766Z,-1.70
2018-12-16T05:17:02.086Z,-1.60
2018-12-16T05:19:30.449Z,-1.50
2018-12-16T05:21:58.771Z,-1.50
2018-12-16T05:24:27.132Z,-1.70
2018-12-16T05:26:55.455Z,-1.70
2018-12-16T05:29:24.026Z,-1.50
2018-12-16T05:31:52.371Z,-1.50
2018-12-16T05:34:20.743Z,-1.50
2018-12-16T05:36:49.080Z,-1.40
2018-12-16T05:39:17.599Z,-1.40
2018-12-16T05:41:46.051Z,-1.20
2018-12-16T05:44:14.395Z,-1.40
2018-12-16T05:46:42.974Z,-1.40
2018-12-16T05:49:11.312Z,-1.30
2018-12-16T05:51:39.697Z,-1.40
2018-12-16T05:54:08.236Z,-1.30
2018-12-16T05:56:36.580Z,-1.30
2018-12-16T05:59:04.915Z,-1.40
2018-12-16T06:01:33.695Z,-1.40
2018-12-16T06:04:02.078Z,-1.40
2018-12-16T06:06:30.438Z,-1.30
2018-12-16T06:08:58.913Z,-1.40
2018-12-16T06:11:27.243Z,-1.30
2018-12-16T06:13:55.584Z,-1.30
2018-12-16T06:16:24.339Z,-1.50
2018-12-16T06:18:52.675Z,-1.40
2018-12-16T06:21:21.052Z,-1.40
2018-12-16T06:23:55.580Z,-1.40
2018-12-16T06:26:20.208Z,-1.40
2018-12-16T06:28:48.549Z,-1.20
2018-12-16T06:31:17.284Z,-1.10
2018-12-16T06:33:45.628Z,-1.10
2018-12-16T06:36:13.980Z,-1.20
2018-12-16T06:38:42.540Z,-1.50
2018-12-16T06:41:10.948Z,-1.50
2018-12-16T06:43:39.262Z,-1.50
2018-12-16T06:46:07.755Z,-1.70
2018-12-16T06:48:36.175Z,-1.70
2018-12-16T06:51:04.488Z,-1.60
2018-12-16T06:53:32.935Z,-1.50
2018-12-16T06:56:06.615Z,-1.30
2018-12-16T06:58:31.705Z,-1.30
2018-12-16T07:01:00.073Z,-1.20
2018-12-16T07:03:28.419Z,-1.20
2018-12-16T07:05:56.868Z,-1.10
2018-12-16T07:08:25.195Z,-1.10
2018-12-16T07:10:53.571Z,-1.10
2018-12-16T07:13:21.905Z,-1.10
2018-12-16T07:15:50.271Z,-1.10
2018-12-16T07:18:18.614Z,-1.30
2018-12-16T07:20:46.951Z,-1.10
2018-12-16T07:23:15.364Z,-1.10
2018-12-16T07:25:43.846Z,-1.00
2018-12-16T07:28:12.264Z,-2.70
2018-12-16T07:30:41.368Z,-1.20
2018-12-16T07:33:09.881Z,-1.00
2018-12-16T07:35:38.259Z,-1.00
2018-12-16T07:38:06.675Z,-0.90
2018-12-16T07:40:35.100Z,-0.90
2018-12-16T07:43:03.440Z,-1.00
2018-12-16T07:45:31.790Z,-0.80
2018-12-16T07:48:00.285Z,-0.70
2018-12-16T07:50:28.780Z,-0.60
2018-12-16T07:52:57.387Z,-0.60
2018-12-16T07:55:25.716Z,-0.70
2018-12-16T07:57:54.260Z,-0.60
2018-12-16T08:00:22.646Z,-0.90
2018-12-16T08:02:51.187Z,-1.00
2018-12-16T08:05:19.639Z,-0.80
2018-12-16T08:07:58.008Z,-0.70
2018-12-16T08:10:26.608Z,-0.50
2018-12-16T08:12:54.954Z,-0.50
2018-12-16T08:15:23.352Z,-0.40
2018-12-16T08:17:51.732Z,-0.30
2018-12-16T08:20:20.184Z,-0.30
2018-12-16T08:22:48.537Z,-0.30
2018-12-16T08:25:16.907Z,-0.50
2018-12-16T08:27:45.320Z,-0.40
2018-12-16T08:30:13.791Z,-0.40
2018-12-16T08:32:42.178Z,-0.30
2018-12-16T08:35:10.540Z,-0.20
2018-12-16T08:37:38.921Z,-0.20
2018-12-16T08:40:07.597Z,-0.10
2018-12-16T08:42:35.943Z,-0.10
2018-12-16T08:45:05.910Z,-0.20
2018-12-16T08:47:34.473Z,-0.20
2018-12-16T08:50:02.821Z,0.00
2018-12-16T08:52:31.472Z,0.00
2018-12-16T08:54:59.909Z,0.00
2018-12-16T08:57:32.230Z,0.10
2018-12-16T09:00:00.633Z,0.20
2018-12-16T09:02:29.424Z,0.40
2018-12-16T09:04:57.860Z,0.40
2018-12-16T09:07:26.364Z,0.40
2018-12-16T09:09:54.861Z,0.60
2018-12-16T09:12:23.197Z,0.50
2018-12-16T09:14:51.592Z,0.40
2018-12-16T09:17:19.952Z,0.50
2018-12-16T09:19:48.323Z,0.60
2018-12-16T09:22:16.777Z,0.50
2018-12-16T09:24:45.400Z,0.60
2018-12-16T09:27:13.740Z,0.60
2018-12-16T09:29:42.520Z,0.80
2018-12-16T09:32:10.934Z,0.80
2018-12-16T09:34:39.324Z,0.80
2018-12-16T09:37:08.629Z,0.90
2018-12-16T09:39:37.202Z,0.90
2018-12-16T09:42:05.554Z,0.90
2018-12-16T09:44:34.668Z,1.00
2018-12-16T09:47:03.091Z,1.00
2018-12-16T09:49:31.493Z,1.20
2018-12-16T09:51:59.934Z,1.10
2018-12-16T09:54:28.379Z,1.10
2018-12-16T09:56:56.910Z,1.20
2018-12-16T09:59:25.251Z,1.30
2018-12-16T10:01:53.620Z,1.50
2018-12-16T10:04:22.056Z,1.60
2018-12-16T10:06:50.641Z,1.60
2018-12-16T10:09:19.505Z,1.50
2018-12-16T10:11:48.054Z,1.50
2018-12-16T10:14:16.545Z,1.50
2018-12-16T10:16:44.892Z,1.60
2018-12-16T10:19:13.316Z,1.60
2018-12-16T10:21:42.812Z,1.60
2018-12-16T10:24:11.478Z,1.50
2018-12-16T10:26:39.859Z,1.40
2018-12-16T10:29:08.401Z,1.60
2018-12-16T10:31:37.029Z,1.50
2018-12-16T10:34:05.522Z,1.40
2018-12-16T10:36:34.152Z,1.40
2018-12-16T10:39:02.577Z,1.60
2018-12-16T10:41:30.943Z,1.70
2018-12-16T10:43:59.456Z,2.50
2018-12-16T10:46:27.900Z,3.20
2018-12-16T10:48:56.305Z,3.50
2018-12-16T10:51:24.664Z,3.40
2018-12-16T10:53:54.523Z,3.50
2018-12-16T10:56:22.924Z,3.60
2018-12-16T10:58:51.374Z,3.60
2018-12-16T11:01:35.472Z,3.60
2018-12-16T11:04:03.860Z,4.10
2018-12-16T11:06:32.187Z,4.70
2018-12-16T11:09:00.765Z,4.80
2018-12-16T11:11:29.326Z,4.00
2018-12-16T11:13:57.780Z,3.50
2018-12-16T11:16:26.253Z,3.20
2018-12-16T11:18:54.636Z,3.60
2018-12-16T11:21:22.989Z,4.00
2018-12-16T11:23:53.988Z,3.80
2018-12-16T11:26:21.764Z,3.50
2018-12-16T11:28:51.120Z,3.40
2018-12-16T11:31:19.854Z,3.70
2018-12-16T11:33:48.483Z,4.10
2018-12-16T11:36:16.957Z,4.50
2018-12-16T11:38:45.466Z,4.90
2018-12-16T11:41:13.913Z,4.70
2018-12-16T11:43:42.255Z,4.10
2018-12-16T11:46:10.624Z,4.50
2018-12-16T11:48:38.987Z,5.50
2018-12-16T11:51:07.442Z,4.70
2018-12-16T11:53:35.908Z,5.40
2018-12-16T11:56:04.380Z,4.20
2018-12-16T11:58:32.863Z,3.70
2018-12-16T12:01:01.363Z,3.90
2018-12-16T12:03:29.687Z,3.90
2018-12-16T12:05:58.126Z,3.50
2018-12-16T12:08:26.448Z,3.20
2018-12-16T12:10:55.080Z,2.90
2018-12-16T12:13:23.486Z,2.90
2018-12-16T12:15:51.865Z,2.80
2018-12-16T12:18:20.239Z,3.00
2018-12-16T12:20:48.652Z,3.00
2018-12-16T12:23:17.944Z,2.90
2018-12-16T12:25:46.481Z,3.00
2018-12-16T12:28:15.284Z,2.80
2018-12-16T12:30:43.708Z,2.80
2018-12-16T12:33:12.127Z,2.90
2018-12-16T12:35:40.537Z,3.30
2018-12-16T12:38:09.075Z,3.10
2018-12-16T12:40:37.607Z,2.90
2018-12-16T12:43:06.064Z,2.90
2018-12-16T12:45:34.642Z,2.80
2018-12-16T12:48:03.552Z,2.80
2018-12-16T12:50:32.181Z,2.80
2018-12-16T12:53:00.652Z,2.90
2018-12-16T12:55:29.097Z,3.00
2018-12-16T12:57:57.483Z,3.00
2018-12-16T13:00:26.010Z,3.20
2018-12-16T13:02:54.446Z,3.30
2018-12-16T13:05:23.076Z,3.30
2018-12-16T13:07:51.664Z,3.30
2018-12-16T13:10:20.096Z,3.20
2018-12-16T13:12:48.592Z,3.00
2018-12-16T13:15:17.088Z,3.00
2018-12-16T13:17:45.669Z,3.00
2018-12-16T13:20:14.231Z,3.00
2018-12-16T13:22:42.938Z,3.10
2018-12-16T13:25:22.634Z,2.90
2018-12-16T13:27:51.359Z,2.90
2018-12-16T13:30:19.791Z,3.00
2018-12-16T13:32:48.492Z,3.10
2018-12-16T13:35:16.869Z,3.00
2018-12-16T13:37:45.309Z,2.90
2018-12-16T13:40:13.660Z,3.00
2018-12-16T13:42:42.038Z,3.00
2018-12-16T13:45:10.405Z,2.90
2018-12-16T13:47:38.804Z,3.00
2018-12-16T13:50:08.783Z,3.10
2018-12-16T13:52:37.215Z,3.00
2018-12-16T13:55:06.519Z,3.00
2018-12-16T13:57:36.052Z,3.00
2018-12-16T14:00:05.241Z,2.90
2018-12-16T14:02:33.661Z,3.00
2018-12-16T14:05:02.035Z,3.00
2018-12-16T14:07:30.424Z,2.90
2018-12-16T14:09:58.892Z,2.90
2018-12-16T14:12:27.352Z,3.00
2018-12-16T14:14:55.717Z,3.20
2018-12-16T14:17:24.289Z,3.20
2018-12-16T14:19:52.632Z,3.10
2018-12-16T14:22:21.035Z,3.10
2018-12-16T14:24:49.428Z,3.10
2018-12-16T14:27:17.833Z,3.20
2018-12-16T14:29:46.231Z,3.20
2018-12-16T14:32:14.587Z,3.20
2018-12-16T14:34:42.984Z,3.10
2018-12-16T14:37:11.392Z,3.10
2018-12-16T14:39:39.748Z,3.10
2018-12-16T14:42:08.251Z,3.20
2018-12-16T14:44:36.603Z,3.10
2018-12-16T14:47:04.961Z,3.10
2018-12-16T14:49:33.364Z,3.10
2018-12-16T14:52:02.714Z,3.10
2018-12-16T14:54:31.132Z,3.00
2018-12-16T14:56:59.651Z,3.10
2018-12-16T14:59:27.980Z,3.10
2018-12-16T15:01:56.456Z,3.10
2018-12-16T15:04:24.944Z,3.10
2018-12-16T15:06:53.323Z,3.10
2018-12-16T15:09:21.769Z,3.10
2018-12-16T15:11:50.300Z,3.10
2018-12-16T15:14:18.752Z,3.10
2018-12-16T15:16:47.103Z,3.00
2018-12-16T15:19:15.575Z,3.00
2018-12-16T15:21:43.968Z,3.00
2018-12-16T15:24:12.446Z,3.00
2018-12-16T15:26:40.799Z,3.00
2018-12-16T15:29:09.231Z,3.00
2018-12-16T15:31:37.559Z,3.00
2018-12-16T15:34:05.979Z,3.00
2018-12-16T15:36:34.368Z,3.10
2018-12-16T15:39:02.862Z,3.30
2018-12-16T15:41:31.194Z,3.30
2018-12-16T15:43:59.571Z,3.20
2018-12-16T15:46:27.964Z,3.10
2018-12-16T15:48:56.679Z,3.20
2018-12-16T15:51:25.172Z,3.10
2018-12-16T15:53:53.789Z,3.10
2018-12-16T15:56:23.577Z,3.10
2018-12-16T15:58:51.936Z,3.10
2018-12-16T16:01:20.348Z,3.10
2018-12-16T16:03:48.706Z,3.10
2018-12-16T16:06:17.184Z,3.10
2018-12-16T16:08:45.552Z,3.00
2018-12-16T16:11:14.089Z,3.10
2018-12-16T16:13:42.515Z,3.20
2018-12-16T16:16:10.907Z,3.20
2018-12-16T16:18:39.327Z,3.20
2018-12-16T16:21:07.756Z,3.20
2018-12-16T16:23:36.121Z,3.20
2018-12-16T16:26:04.529Z,3.40
2018-12-16T16:28:32.903Z,3.40
2018-12-16T16:31:01.376Z,3.30
2018-12-16T16:33:29.877Z,3.30
2018-12-16T16:35:58.320Z,3.20
2018-12-16T16:38:26.720Z,3.30
2018-12-16T16:40:55.100Z,3.40
2018-12-16T16:43:23.495Z,3.30
2018-12-16T16:45:51.874Z,3.30
2018-12-16T16:48:20.252Z,3.30
2018-12-16T16:50:48.637Z,3.30
2018-12-16T16:53:17.572Z,3.20
2018-12-16T16:55:45.949Z,3.00
2018-12-16T16:58:14.967Z,3.00
2018-12-16T17:00:43.407Z,3.10
2018-12-16T17:03:11.884Z,2.90
2018-12-16T17:05:40.264Z,2.90
2018-12-16T17:08:09.135Z,2.90
2018-12-16T17:10:37.628Z,3.00
2018-12-16T17:13:06.020Z,3.00
2018-12-16T17:15:34.484Z,3.10
2018-12-16T17:18:03.291Z,3.10
2018-12-16T17:20:31.635Z,3.00
2018-12-16T17:22:59.979Z,2.90
2018-12-16T17:25:28.477Z,3.00
2018-12-16T17:27:56.816Z,3.00
2018-12-16T17:30:25.344Z,3.00
2018-12-16T17:32:53.862Z,2.90
2018-12-16T17:35:22.296Z,2.80
2018-12-16T17:37:50.662Z,2.70
2018-12-16T17:40:19.029Z,2.70
2018-12-16T17:42:47.419Z,2.70
2018-12-16T17:45:15.797Z,2.70
2018-12-16T17:47:44.268Z,2.70
2018-12-16T17:50:12.643Z,2.60
2018-12-16T17:52:41.074Z,2.70
2018-12-16T17:55:09.462Z,2.70
2018-12-16T17:57:38.051Z,2.80
2018-12-16T18:00:08.479Z,2.80
2018-12-16T18:02:36.863Z,2.80
2018-12-16T18:05:05.842Z,2.80
2018-12-16T18:07:34.203Z,2.80
2018-12-16T18:10:02.799Z,2.80
2018-12-16T18:12:31.152Z,2.80
2018-12-16T18:14:59.576Z,2.90
2018-12-16T18:17:27.955Z,2.90
2018-12-16T18:19:56.336Z,2.80
2018-12-16T18:22:24.808Z,2.80
2018-12-16T18:24:53.319Z,2.70
2018-12-16T18:27:21.678Z,2.70
2018-12-16T18:29:50.189Z,2.70
2018-12-16T18:32:18.764Z,2.80
2018-12-16T18:34:47.164Z,2.70
2018-12-16T18:37:15.550Z,2.70
2018-12-16T18:39:43.951Z,2.70
2018-12-16T18:42:12.373Z,2.70
2018-12-16T18:44:41.002Z,2.80
2018-12-16T18:47:09.410Z,2.80
2018-12-16T18:49:37.822Z,2.70
2018-12-16T18:52:06.300Z,2.80
2018-12-16T18:54:34.755Z,2.70
2018-12-16T18:57:07.137Z,2.60
2018-12-16T18:59:33.546Z,2.60
2018-12-16T19:02:01.908Z,2.70
2018-12-16T19:04:30.357Z,2.60
2018-12-16T19:06:58.756Z,2.60
2018-12-16T19:09:27.221Z,2.60
2018-12-16T19:11:55.598Z,2.60
2018-12-16T19:14:24.137Z,2.60
2018-12-16T19:16:52.586Z,2.60
2018-12-16T19:19:21.236Z,2.60
2018-12-16T19:21:49.639Z,2.60
2018-12-16T19:24:18.119Z,2.50
2018-12-16T19:26:46.499Z,2.50
2018-12-16T19:29:15.062Z,2.40
2018-12-16T19:31:43.421Z,2.50
2018-12-16T19:34:11.825Z,2.50
2018-12-16T19:36:40.268Z,2.60
2018-12-16T19:39:09.619Z,2.60
2018-12-16T19:41:38.027Z,2.60
2018-12-16T19:44:06.429Z,2.60
2018-12-16T19:46:35.780Z,2.70
2018-12-16T19:49:04.262Z,2.80
2018-12-16T19:51:32.840Z,2.80
2018-12-16T19:54:01.255Z,2.70
2018-12-16T19:56:29.668Z,2.80
2018-12-16T19:58:59.432Z,2.90
2018-12-16T20:01:27.892Z,2.90
2018-12-16T20:04:01.726Z,2.90
2018-12-16T20:06:36.087Z,2.90
2018-12-16T20:09:13.768Z,2.80
2018-12-16T20:11:42.161Z,2.90
2018-12-16T20:14:10.654Z,3.00
2018-12-16T20:16:39.136Z,3.00
2018-12-16T20:19:07.572Z,2.90
2018-12-16T20:21:36.821Z,2.90
2018-12-16T20:24:06.624Z,2.90
2018-12-16T20:26:35.128Z,3.00
2018-12-16T20:29:03.552Z,2.90
2018-12-16T20:31:32.528Z,2.90
2018-12-16T20:34:00.919Z,2.90
2018-12-16T20:36:29.445Z,2.90
2018-12-16T20:38:58.008Z,2.90
2018-12-16T20:41:26.429Z,2.90
2018-12-16T20:43:54.847Z,2.90
2018-12-16T20:46:23.298Z,2.90
2018-12-16T20:48:51.800Z,2.70
2018-12-16T20:51:20.172Z,2.70
2018-12-16T20:53:49.588Z,2.90
2018-12-16T20:56:17.979Z,2.90
2018-12-16T20:58:47.049Z,2.90
2018-12-16T21:01:15.452Z,2.90
2018-12-16T21:03:43.878Z,2.90
2018-12-16T21:06:12.271Z,2.90
2018-12-16T21:08:40.700Z,2.90
2018-12-16T21:11:14.471Z,2.90
2018-12-16T21:14:45.889Z,2.80
2018-12-16T21:17:19.760Z,2.90
2018-12-16T21:19:48.181Z,2.80
2018-12-16T21:22:16.636Z,2.80
2018-12-16T21:24:45.163Z,2.80
2018-12-16T21:27:13.862Z,2.80
2018-12-16T21:29:42.249Z,2.80
2018-12-16T21:32:11.232Z,2.80
2018-12-16T21:34:39.641Z,2.70
2018-12-16T21:37:07.986Z,2.70
2018-12-16T21:39:36.482Z,2.70
2018-12-16T21:42:04.931Z,2.70
2018-12-16T21:44:33.440Z,2.70
2018-12-16T21:47:01.833Z,2.80
2018-12-16T21:49:30.192Z,2.90
2018-12-16T21:52:00.020Z,2.80
2018-12-16T21:54:28.388Z,2.70
2018-12-16T21:56:57.178Z,2.60
2018-12-16T21:59:25.778Z,2.60
2018-12-16T22:01:54.131Z,2.60
2018-12-16T22:04:22.584Z,2.60
2018-12-16T22:06:51.147Z,2.60
2018-12-16T22:09:19.597Z,2.60
2018-12-16T22:11:48.181Z,2.70
2018-12-16T22:14:17.317Z,2.70
2018-12-16T22:16:45.997Z,2.70
2018-12-16T22:19:14.428Z,2.70
2018-12-16T22:21:43.167Z,2.80
2018-12-16T22:24:11.841Z,2.90
2018-12-16T22:26:40.309Z,3.00
2018-12-16T22:29:08.679Z,2.90
2018-12-16T22:31:37.031Z,2.80
2018-12-16T22:34:05.811Z,2.70
2018-12-16T22:36:34.231Z,2.70
2018-12-16T22:39:02.633Z,2.70
2018-12-16T22:41:31.251Z,2.70
2018-12-16T22:43:59.595Z,2.60
2018-12-16T22:46:28.018Z,2.60
2018-12-16T22:48:56.740Z,2.60
2018-12-16T22:51:25.364Z,2.60
2018-12-16T22:53:53.705Z,2.70
2018-12-16T22:56:22.086Z,2.80
2018-12-16T22:58:54.306Z,2.80
2018-12-16T23:01:21.048Z,2.80
2018-12-16T23:03:49.390Z,2.80
2018-12-16T23:06:17.986Z,2.80
2018-12-16T23:08:46.348Z,2.80
2018-12-16T23:11:14.759Z,2.90
2018-12-16T23:13:43.114Z,2.90
2018-12-16T23:16:11.591Z,2.80
2018-12-16T23:18:40.443Z,2.80
2018-12-16T23:21:08.862Z,2.80
2018-12-16T23:23:37.222Z,2.80
2018-12-16T23:26:05.722Z,2.90
2018-12-16T23:28:34.160Z,3.00
2018-12-16T23:31:02.565Z,3.00
2018-12-16T23:33:30.963Z,3.00
2018-12-16T23:35:59.693Z,3.10
2018-12-16T23:38:29.020Z,3.10
2018-12-16T23:40:57.412Z,3.10
2018-12-16T23:43:25.806Z,3.10
2018-12-16T23:45:54.124Z,3.10
2018-12-16T23:48:22.554Z,3.00
2018-12-16T23:50:51.243Z,2.90
2018-12-16T23:53:19.587Z,2.90
2018-12-16T23:55:47.967Z,2.80
2018-12-16T23:58:16.334Z,2.70
